createdAt,value
2022-09-28T00:05:08.283Z,2.63
2022-09-28T00:07:42.070Z,3.13
2022-09-28T00:10:18.560Z,2.27
2022-09-28T00:13:16.670Z,2.00
2022-09-28T00:16:28.905Z,3.00
2022-09-28T00:27:14.056Z,7.70
2022-09-28T00:30:35.771Z,2.77
2022-09-28T00:33:05.331Z,3.23
2022-09-28T07:15:56.069Z,20.27
2022-09-28T07:18:23.696Z,19.13
2022-09-28T07:20:54.589Z,13.27
2022-09-28T07:23:21.590Z,19.63
2022-09-28T07:25:50.254Z,11.73
2022-09-28T07:28:17.475Z,11.83
2022-09-28T07:30:44.947Z,10.70
2022-09-28T07:33:14.521Z,10.47
2022-09-28T07:35:44.716Z,9.50
2022-09-28T07:38:11.562Z,8.67
2022-09-28T07:40:57.059Z,9.00
2022-09-28T07:43:24.108Z,8.97
2022-09-28T07:45:52.908Z,7.60
2022-09-28T07:48:20.178Z,7.63
2022-09-28T07:50:52.253Z,7.77
2022-09-28T07:53:20.229Z,7.47
2022-09-28T07:56:05.703Z,6.83
2022-09-28T07:58:33.019Z,7.23
2022-09-28T08:01:04.439Z,7.37
2022-09-28T08:03:31.373Z,7.17
2022-09-28T08:06:00.173Z,7.63
2022-09-28T08:08:27.666Z,8.10
2022-09-28T08:10:58.246Z,7.53
2022-09-28T08:13:27.704Z,7.23
2022-09-28T08:15:54.934Z,9.73
2022-09-28T08:18:21.951Z,6.70
2022-09-28T08:21:11.090Z,6.97
2022-09-28T08:23:38.478Z,6.53
2022-09-28T08:26:06.729Z,6.67
2022-09-28T08:28:35.423Z,6.47
2022-09-28T08:31:02.569Z,7.50
2022-09-28T08:33:29.803Z,6.87
2022-09-28T08:35:57.988Z,7.80
2022-09-28T08:38:27.959Z,7.33
2022-09-28T08:41:34.969Z,8.87
2022-09-28T08:44:24.107Z,8.17
2022-09-28T08:47:04.733Z,8.00
2022-09-28T08:49:47.571Z,7.77
2022-09-28T08:52:28.373Z,7.77
